sensor_id;sensor_type;location;lat;lon;timestamp;temperature;humidity
2489;DHT22;1255;48.716;9.124;2023-05-19T00:02:15;11.60;99.90
2489;DHT22;1255;48.716;9.124;2023-05-19T00:04:45;11.50;99.90
2489;DHT22;1255;48.716;9.124;2023-05-19T00:07:17;11.40;99.90
2489;DHT22;1255;48.716;9.124;2023-05-19T00:09:45;11.40;99.90
2489;DHT22;1255;48.716;9.124;2023-05-19T00:12:13;11.40;99.90
2489;DHT22;1255;48.716;9.124;2023-05-19T00:14:40;11.40;99.90
2489;DHT22;1255;48.716;9.124;2023-05-19T00:17:07;11.30;99.90
2489;DHT22;1255;48.716;9.124;2023-05-19T00:19:34;11.30;99.90
2489;DHT22;1255;48.716;9.124;2023-05-19T00:22:03;11.30;99.90
2489;DHT22;1255;48.716;9.124;2023-05-19T00:24:31;11.20;99.90
2489;DHT22;1255;48.716;9.124;2023-05-19T00:26:57;11.20;99.90
2489;DHT22;1255;48.716;9.124;2023-05-19T00:29:24;11.20;99.90
2489;DHT22;1255;48.716;9.124;2023-05-19T00:31:51;11.10;99.90
2489;DHT22;1255;48.716;9.124;2023-05-19T00:34:17;11.10;99.90
2489;DHT22;1255;48.716;9.124;2023-05-19T00:36:44;11.00;99.90
2489;DHT22;1255;48.716;9.124;2023-05-19T00:39:11;11.00;99.90
2489;DHT22;1255;48.716;9.124;2023-05-19T00:41:39;10.90;99.90
2489;DHT22;1255;48.716;9.124;2023-05-19T00:44:06;10.90;99.90
2489;DHT22;1255;48.716;9.124;2023-05-19T00:46:33;10.90;99.90
2489;DHT22;1255;48.716;9.124;2023-05-19T00:49:00;10.80;99.90
2489;DHT22;1255;48.716;9.124;2023-05-19T00:51:27;10.70;99.90
2489;DHT22;1255;48.716;9.124;2023-05-19T00:53:54;10.70;99.90
2489;DHT22;1255;48.716;9.124;2023-05-19T00:56:21;10.60;99.90
2489;DHT22;1255;48.716;9.124;2023-05-19T00:58:50;10.60;99.90
2489;DHT22;1255;48.716;9.124;2023-05-19T01:01:17;10.50;99.90
2489;DHT22;1255;48.716;9.124;2023-05-19T01:03:46;10.50;99.90
2489;DHT22;1255;48.716;9.124;2023-05-19T01:06:14;10.40;99.90
2489;DHT22;1255;48.716;9.124;2023-05-19T01:08:43;10.40;99.90
2489;DHT22;1255;48.716;9.124;2023-05-19T01:11:10;10.40;99.90
2489;DHT22;1255;48.716;9.124;2023-05-19T01:13:37;10.40;99.90
2489;DHT22;1255;48.716;9.124;2023-05-19T01:16:10;10.30;99.90
2489;DHT22;1255;48.716;9.124;2023-05-19T01:18:48;10.30;99.90
2489;DHT22;1255;48.716;9.124;2023-05-19T01:21:42;10.30;99.90
2489;DHT22;1255;48.716;9.124;2023-05-19T01:24:33;10.30;99.90
2489;DHT22;1255;48.716;9.124;2023-05-19T01:27:28;10.40;99.90
2489;DHT22;1255;48.716;9.124;2023-05-19T01:30:21;10.40;99.90
2489;DHT22;1255;48.716;9.124;2023-05-19T01:32:51;10.40;99.90
2489;DHT22;1255;48.716;9.124;2023-05-19T01:35:21;10.30;99.90
2489;DHT22;1255;48.716;9.124;2023-05-19T01:37:49;10.30;99.90
2489;DHT22;1255;48.716;9.124;2023-05-19T01:40:17;10.30;99.90
2489;DHT22;1255;48.716;9.124;2023-05-19T01:42:45;10.30;99.90
2489;DHT22;1255;48.716;9.124;2023-05-19T01:45:14;10.30;99.90
2489;DHT22;1255;48.716;9.124;2023-05-19T01:47:43;10.30;99.90
2489;DHT22;1255;48.716;9.124;2023-05-19T01:50:10;10.30;99.90
2489;DHT22;1255;48.716;9.124;2023-05-19T01:52:37;10.30;99.90
2489;DHT22;1255;48.716;9.124;2023-05-19T01:55:04;10.30;99.90
2489;DHT22;1255;48.716;9.124;2023-05-19T01:57:38;10.30;99.90
2489;DHT22;1255;48.716;9.124;2023-05-19T02:00:12;10.30;99.90
2489;DHT22;1255;48.716;9.124;2023-05-19T02:02:54;10.20;99.90
2489;DHT22;1255;48.716;9.124;2023-05-19T02:05:29;10.20;99.90
2489;DHT22;1255;48.716;9.124;2023-05-19T02:08:00;10.20;99.90
2489;DHT22;1255;48.716;9.124;2023-05-19T02:10:31;10.10;99.90
2489;DHT22;1255;48.716;9.124;2023-05-19T02:13:00;10.10;99.90
2489;DHT22;1255;48.716;9.124;2023-05-19T02:15:40;10.10;99.90
2489;DHT22;1255;48.716;9.124;2023-05-19T02:18:10;10.10;99.90
2489;DHT22;1255;48.716;9.124;2023-05-19T02:20:37;10.10;99.90
2489;DHT22;1255;48.716;9.124;2023-05-19T02:23:04;10.00;99.90
2489;DHT22;1255;48.716;9.124;2023-05-19T02:25:30;10.00;99.90
2489;DHT22;1255;48.716;9.124;2023-05-19T02:27:57;10.00;99.90
2489;DHT22;1255;48.716;9.124;2023-05-19T02:30:24;10.00;99.90
2489;DHT22;1255;48.716;9.124;2023-05-19T02:32:51;10.00;99.90
2489;DHT22;1255;48.716;9.124;2023-05-19T02:35:20;10.00;99.90
2489;DHT22;1255;48.716;9.124;2023-05-19T02:37:46;10.00;99.90
2489;DHT22;1255;48.716;9.124;2023-05-19T02:40:13;10.10;99.90
2489;DHT22;1255;48.716;9.124;2023-05-19T02:42:40;10.10;99.90
2489;DHT22;1255;48.716;9.124;2023-05-19T02:45:07;10.10;99.90
2489;DHT22;1255;48.716;9.124;2023-05-19T02:47:34;10.10;99.90
2489;DHT22;1255;48.716;9.124;2023-05-19T02:50:01;10.20;99.90
2489;DHT22;1255;48.716;9.124;2023-05-19T02:52:29;10.20;99.90
2489;DHT22;1255;48.716;9.124;2023-05-19T02:54:55;10.20;99.90
2489;DHT22;1255;48.716;9.124;2023-05-19T02:57:22;10.20;99.90
2489;DHT22;1255;48.716;9.124;2023-05-19T02:59:49;10.10;99.90
2489;DHT22;1255;48.716;9.124;2023-05-19T03:02:16;10.10;99.90
2489;DHT22;1255;48.716;9.124;2023-05-19T03:04:43;10.10;99.90
2489;DHT22;1255;48.716;9.124;2023-05-19T03:07:10;10.10;99.90
2489;DHT22;1255;48.716;9.124;2023-05-19T03:09:39;10.10;99.90
2489;DHT22;1255;48.716;9.124;2023-05-19T03:12:06;10.10;99.90
2489;DHT22;1255;48.716;9.124;2023-05-19T03:14:33;10.00;99.90
2489;DHT22;1255;48.716;9.124;2023-05-19T03:17:02;10.00;99.90
2489;DHT22;1255;48.716;9.124;2023-05-19T03:19:28;10.00;99.90
2489;DHT22;1255;48.716;9.124;2023-05-19T03:21:56;10.00;99.90
2489;DHT22;1255;48.716;9.124;2023-05-19T03:24:23;10.00;99.90
2489;DHT22;1255;48.716;9.124;2023-05-19T03:26:51;10.00;99.90
2489;DHT22;1255;48.716;9.124;2023-05-19T03:29:18;10.00;99.90
2489;DHT22;1255;48.716;9.124;2023-05-19T03:31:45;10.00;99.90
2489;DHT22;1255;48.716;9.124;2023-05-19T03:34:12;10.00;99.90
2489;DHT22;1255;48.716;9.124;2023-05-19T03:36:39;10.00;99.90
2489;DHT22;1255;48.716;9.124;2023-05-19T03:39:06;10.00;99.90
2489;DHT22;1255;48.716;9.124;2023-05-19T03:41:32;10.00;99.90
2489;DHT22;1255;48.716;9.124;2023-05-19T03:44:00;10.00;99.90
2489;DHT22;1255;48.716;9.124;2023-05-19T03:46:27;10.00;99.90
2489;DHT22;1255;48.716;9.124;2023-05-19T03:48:54;10.00;99.90
2489;DHT22;1255;48.716;9.124;2023-05-19T03:51:20;10.00;99.90
2489;DHT22;1255;48.716;9.124;2023-05-19T03:53:47;9.90;99.90
2489;DHT22;1255;48.716;9.124;2023-05-19T03:56:14;9.90;99.90
2489;DHT22;1255;48.716;9.124;2023-05-19T03:58:42;9.90;99.90
2489;DHT22;1255;48.716;9.124;2023-05-19T04:01:12;9.90;99.90
2489;DHT22;1255;48.716;9.124;2023-05-19T04:03:39;9.90;99.90
2489;DHT22;1255;48.716;9.124;2023-05-19T04:06:06;9.80;99.90
2489;DHT22;1255;48.716;9.124;2023-05-19T04:08:33;9.80;99.90
2489;DHT22;1255;48.716;9.124;2023-05-19T04:11:00;9.80;99.90
2489;DHT22;1255;48.716;9.124;2023-05-19T04:13:27;9.70;99.90
2489;DHT22;1255;48.716;9.124;2023-05-19T04:15:53;9.70;99.90
2489;DHT22;1255;48.716;9.124;2023-05-19T04:18:22;9.70;99.90
2489;DHT22;1255;48.716;9.124;2023-05-19T04:20:48;9.70;99.90
2489;DHT22;1255;48.716;9.124;2023-05-19T04:23:15;9.70;99.90
2489;DHT22;1255;48.716;9.124;2023-05-19T04:25:42;9.70;99.90
2489;DHT22;1255;48.716;9.124;2023-05-19T04:28:08;9.80;99.90
2489;DHT22;1255;48.716;9.124;2023-05-19T04:30:35;9.70;99.90
2489;DHT22;1255;48.716;9.124;2023-05-19T04:33:03;9.70;99.90
2489;DHT22;1255;48.716;9.124;2023-05-19T04:35:31;9.80;99.90
2489;DHT22;1255;48.716;9.124;2023-05-19T04:37:57;9.80;99.90
2489;DHT22;1255;48.716;9.124;2023-05-19T04:40:26;9.80;99.90
2489;DHT22;1255;48.716;9.124;2023-05-19T04:42:55;9.80;99.90
2489;DHT22;1255;48.716;9.124;2023-05-19T04:45:22;9.90;99.90
2489;DHT22;1255;48.716;9.124;2023-05-19T04:47:50;9.90;99.90
2489;DHT22;1255;48.716;9.124;2023-05-19T04:50:17;9.90;99.90
2489;DHT22;1255;48.716;9.124;2023-05-19T04:52:45;10.00;99.90
2489;DHT22;1255;48.716;9.124;2023-05-19T04:55:11;10.00;99.90
2489;DHT22;1255;48.716;9.124;2023-05-19T04:57:38;10.00;99.90
2489;DHT22;1255;48.716;9.124;2023-05-19T05:00:06;10.10;99.90
2489;DHT22;1255;48.716;9.124;2023-05-19T05:02:36;10.10;99.90
2489;DHT22;1255;48.716;9.124;2023-05-19T05:05:03;10.10;99.90
2489;DHT22;1255;48.716;9.124;2023-05-19T05:07:30;10.10;99.90
2489;DHT22;1255;48.716;9.124;2023-05-19T05:09:58;10.10;99.90
2489;DHT22;1255;48.716;9.124;2023-05-19T05:12:25;10.20;99.90
2489;DHT22;1255;48.716;9.124;2023-05-19T05:14:53;10.20;99.90
2489;DHT22;1255;48.716;9.124;2023-05-19T05:17:20;10.20;99.90
2489;DHT22;1255;48.716;9.124;2023-05-19T05:19:47;10.20;99.90
2489;DHT22;1255;48.716;9.124;2023-05-19T05:22:15;10.30;99.90
2489;DHT22;1255;48.716;9.124;2023-05-19T05:24:42;10.30;99.90
2489;DHT22;1255;48.716;9.124;2023-05-19T05:27:10;10.30;99.90
2489;DHT22;1255;48.716;9.124;2023-05-19T05:29:37;10.30;99.90
2489;DHT22;1255;48.716;9.124;2023-05-19T05:32:04;10.40;99.90
2489;DHT22;1255;48.716;9.124;2023-05-19T05:34:32;10.30;99.90
2489;DHT22;1255;48.716;9.124;2023-05-19T05:37:00;10.40;99.90
2489;DHT22;1255;48.716;9.124;2023-05-19T05:39:26;10.30;99.90
2489;DHT22;1255;48.716;9.124;2023-05-19T05:41:53;10.40;99.90
2489;DHT22;1255;48.716;9.124;2023-05-19T05:44:21;10.40;99.90
2489;DHT22;1255;48.716;9.124;2023-05-19T05:46:48;10.50;99.90
2489;DHT22;1255;48.716;9.124;2023-05-19T05:49:16;10.50;99.90
2489;DHT22;1255;48.716;9.124;2023-05-19T05:51:43;10.60;99.90
2489;DHT22;1255;48.716;9.124;2023-05-19T05:54:11;10.70;99.90
2489;DHT22;1255;48.716;9.124;2023-05-19T05:56:38;10.80;99.90
2489;DHT22;1255;48.716;9.124;2023-05-19T05:59:05;10.80;99.90
2489;DHT22;1255;48.716;9.124;2023-05-19T06:01:33;10.90;99.90
2489;DHT22;1255;48.716;9.124;2023-05-19T06:04:01;10.90;99.90
2489;DHT22;1255;48.716;9.124;2023-05-19T06:06:27;11.00;99.90
2489;DHT22;1255;48.716;9.124;2023-05-19T06:08:54;11.10;99.90
2489;DHT22;1255;48.716;9.124;2023-05-19T06:11:21;11.10;99.90
2489;DHT22;1255;48.716;9.124;2023-05-19T06:13:48;11.20;99.90
2489;DHT22;1255;48.716;9.124;2023-05-19T06:16:14;11.30;99.90
2489;DHT22;1255;48.716;9.124;2023-05-19T06:18:42;11.40;99.90
2489;DHT22;1255;48.716;9.124;2023-05-19T06:21:09;11.50;99.90
2489;DHT22;1255;48.716;9.124;2023-05-19T06:23:38;11.60;99.90
2489;DHT22;1255;48.716;9.124;2023-05-19T06:26:05;11.70;99.90
2489;DHT22;1255;48.716;9.124;2023-05-19T06:28:32;11.80;99.90
2489;DHT22;1255;48.716;9.124;2023-05-19T06:30:58;12.00;99.90
2489;DHT22;1255;48.716;9.124;2023-05-19T06:33:25;12.10;99.90
2489;DHT22;1255;48.716;9.124;2023-05-19T06:35:53;12.10;99.90
2489;DHT22;1255;48.716;9.124;2023-05-19T06:38:20;12.10;99.90
2489;DHT22;1255;48.716;9.124;2023-05-19T06:40:47;12.20;99.90
2489;DHT22;1255;48.716;9.124;2023-05-19T06:43:14;12.20;99.90
2489;DHT22;1255;48.716;9.124;2023-05-19T06:45:40;12.30;99.90
2489;DHT22;1255;48.716;9.124;2023-05-19T06:48:07;12.40;99.90
2489;DHT22;1255;48.716;9.124;2023-05-19T06:50:34;12.50;99.90
2489;DHT22;1255;48.716;9.124;2023-05-19T06:53:02;12.60;99.90
2489;DHT22;1255;48.716;9.124;2023-05-19T06:55:28;12.60;99.90
2489;DHT22;1255;48.716;9.124;2023-05-19T06:57:55;12.70;99.90
2489;DHT22;1255;48.716;9.124;2023-05-19T07:00:22;12.90;99.90
2489;DHT22;1255;48.716;9.124;2023-05-19T07:02:49;13.00;99.90
2489;DHT22;1255;48.716;9.124;2023-05-19T07:05:16;13.30;99.90
2489;DHT22;1255;48.716;9.124;2023-05-19T07:07:42;13.40;99.90
2489;DHT22;1255;48.716;9.124;2023-05-19T07:10:11;13.30;99.90
2489;DHT22;1255;48.716;9.124;2023-05-19T07:12:37;13.30;99.90
2489;DHT22;1255;48.716;9.124;2023-05-19T07:15:05;13.40;99.90
2489;DHT22;1255;48.716;9.124;2023-05-19T07:17:32;13.40;99.90
2489;DHT22;1255;48.716;9.124;2023-05-19T07:19:58;13.40;99.90
2489;DHT22;1255;48.716;9.124;2023-05-19T07:22:26;13.50;99.90
2489;DHT22;1255;48.716;9.124;2023-05-19T07:24:53;13.50;99.90
2489;DHT22;1255;48.716;9.124;2023-05-19T07:27:22;13.60;99.90
2489;DHT22;1255;48.716;9.124;2023-05-19T07:29:49;13.70;99.90
2489;DHT22;1255;48.716;9.124;2023-05-19T07:32:16;13.90;99.90
2489;DHT22;1255;48.716;9.124;2023-05-19T07:34:43;13.90;99.90
2489;DHT22;1255;48.716;9.124;2023-05-19T07:37:09;14.00;99.90
2489;DHT22;1255;48.716;9.124;2023-05-19T07:39:36;14.00;99.90
2489;DHT22;1255;48.716;9.124;2023-05-19T07:42:03;14.10;99.90
2489;DHT22;1255;48.716;9.124;2023-05-19T07:44:31;14.10;99.90
2489;DHT22;1255;48.716;9.124;2023-05-19T07:46:59;14.10;99.90
2489;DHT22;1255;48.716;9.124;2023-05-19T07:49:26;14.20;99.90
2489;DHT22;1255;48.716;9.124;2023-05-19T07:51:53;14.10;99.90
2489;DHT22;1255;48.716;9.124;2023-05-19T07:54:19;14.00;99.90
2489;DHT22;1255;48.716;9.124;2023-05-19T07:56:46;13.90;99.90
2489;DHT22;1255;48.716;9.124;2023-05-19T07:59:13;14.00;99.90
2489;DHT22;1255;48.716;9.124;2023-05-19T08:01:41;14.00;99.90
2489;DHT22;1255;48.716;9.124;2023-05-19T08:04:09;14.00;99.90
2489;DHT22;1255;48.716;9.124;2023-05-19T08:06:36;13.90;99.90
2489;DHT22;1255;48.716;9.124;2023-05-19T08:09:03;13.80;99.90
2489;DHT22;1255;48.716;9.124;2023-05-19T08:11:30;13.90;99.90
2489;DHT22;1255;48.716;9.124;2023-05-19T08:13:57;13.80;99.90
2489;DHT22;1255;48.716;9.124;2023-05-19T08:16:24;13.80;99.90
2489;DHT22;1255;48.716;9.124;2023-05-19T08:18:52;13.70;99.90
2489;DHT22;1255;48.716;9.124;2023-05-19T08:21:19;13.70;99.90
2489;DHT22;1255;48.716;9.124;2023-05-19T08:23:46;13.70;99.90
2489;DHT22;1255;48.716;9.124;2023-05-19T08:26:12;13.70;99.90
2489;DHT22;1255;48.716;9.124;2023-05-19T08:28:39;13.70;99.90
2489;DHT22;1255;48.716;9.124;2023-05-19T08:31:06;13.70;99.90
2489;DHT22;1255;48.716;9.124;2023-05-19T08:33:33;13.70;99.90
2489;DHT22;1255;48.716;9.124;2023-05-19T08:36:01;13.70;99.90
2489;DHT22;1255;48.716;9.124;2023-05-19T08:38:27;13.80;99.90
2489;DHT22;1255;48.716;9.124;2023-05-19T08:40:54;13.80;99.90
2489;DHT22;1255;48.716;9.124;2023-05-19T08:43:22;13.80;99.90
2489;DHT22;1255;48.716;9.124;2023-05-19T08:45:49;14.00;99.90
2489;DHT22;1255;48.716;9.124;2023-05-19T08:48:18;13.90;99.90
2489;DHT22;1255;48.716;9.124;2023-05-19T08:50:51;13.90;99.90
2489;DHT22;1255;48.716;9.124;2023-05-19T08:53:23;14.10;99.90
2489;DHT22;1255;48.716;9.124;2023-05-19T08:56:00;14.20;99.90
2489;DHT22;1255;48.716;9.124;2023-05-19T08:58:28;14.20;99.90
2489;DHT22;1255;48.716;9.124;2023-05-19T09:00:55;14.40;99.90
2489;DHT22;1255;48.716;9.124;2023-05-19T09:03:23;14.50;99.90
2489;DHT22;1255;48.716;9.124;2023-05-19T09:05:51;14.50;99.90
2489;DHT22;1255;48.716;9.124;2023-05-19T09:08:17;14.40;99.90
2489;DHT22;1255;48.716;9.124;2023-05-19T09:10:45;14.40;99.90
2489;DHT22;1255;48.716;9.124;2023-05-19T09:13:12;14.40;99.90
2489;DHT22;1255;48.716;9.124;2023-05-19T09:15:39;14.40;99.90
2489;DHT22;1255;48.716;9.124;2023-05-19T09:18:07;14.50;99.90
2489;DHT22;1255;48.716;9.124;2023-05-19T09:20:39;14.50;99.90
2489;DHT22;1255;48.716;9.124;2023-05-19T09:23:06;14.50;99.90
2489;DHT22;1255;48.716;9.124;2023-05-19T09:25:33;14.60;99.90
2489;DHT22;1255;48.716;9.124;2023-05-19T09:28:02;14.60;99.90
2489;DHT22;1255;48.716;9.124;2023-05-19T09:30:28;14.70;99.90
2489;DHT22;1255;48.716;9.124;2023-05-19T09:32:56;14.50;99.90
2489;DHT22;1255;48.716;9.124;2023-05-19T09:35:23;14.50;99.90
2489;DHT22;1255;48.716;9.124;2023-05-19T09:37:49;14.40;99.90
2489;DHT22;1255;48.716;9.124;2023-05-19T09:40:16;14.40;99.90
2489;DHT22;1255;48.716;9.124;2023-05-19T09:42:43;14.50;99.90
2489;DHT22;1255;48.716;9.124;2023-05-19T09:45:11;14.60;99.90
2489;DHT22;1255;48.716;9.124;2023-05-19T09:47:39;14.60;99.90
2489;DHT22;1255;48.716;9.124;2023-05-19T09:50:08;14.60;99.90
2489;DHT22;1255;48.716;9.124;2023-05-19T09:52:35;14.70;99.90
2489;DHT22;1255;48.716;9.124;2023-05-19T09:55:04;14.80;99.90
2489;DHT22;1255;48.716;9.124;2023-05-19T09:57:35;14.80;99.90
2489;DHT22;1255;48.716;9.124;2023-05-19T10:00:03;14.90;99.90
2489;DHT22;1255;48.716;9.124;2023-05-19T10:02:45;14.90;99.90
2489;DHT22;1255;48.716;9.124;2023-05-19T10:05:13;14.70;99.90
2489;DHT22;1255;48.716;9.124;2023-05-19T10:07:42;14.70;99.90
2489;DHT22;1255;48.716;9.124;2023-05-19T10:10:11;14.60;99.90
2489;DHT22;1255;48.716;9.124;2023-05-19T10:12:39;14.40;99.90
2489;DHT22;1255;48.716;9.124;2023-05-19T10:15:08;14.40;99.90
2489;DHT22;1255;48.716;9.124;2023-05-19T10:17:37;14.40;99.90
2489;DHT22;1255;48.716;9.124;2023-05-19T10:20:07;14.20;99.90
2489;DHT22;1255;48.716;9.124;2023-05-19T10:22:35;14.10;99.90
2489;DHT22;1255;48.716;9.124;2023-05-19T10:25:02;14.20;99.90
2489;DHT22;1255;48.716;9.124;2023-05-19T10:27:30;14.10;99.90
2489;DHT22;1255;48.716;9.124;2023-05-19T10:30:01;14.00;99.90
2489;DHT22;1255;48.716;9.124;2023-05-19T10:32:31;14.00;99.90
2489;DHT22;1255;48.716;9.124;2023-05-19T10:38:31;14.10;99.90
2489;DHT22;1255;48.716;9.124;2023-05-19T10:41:05;14.10;99.90
2489;DHT22;1255;48.716;9.124;2023-05-19T10:43:43;14.00;99.90
2489;DHT22;1255;48.716;9.124;2023-05-19T10:46:10;13.90;99.90
2489;DHT22;1255;48.716;9.124;2023-05-19T10:48:37;14.00;99.90
2489;DHT22;1255;48.716;9.124;2023-05-19T10:51:04;14.00;99.90
2489;DHT22;1255;48.716;9.124;2023-05-19T10:53:40;13.90;99.90
2489;DHT22;1255;48.716;9.124;2023-05-19T10:56:11;14.00;99.90
2489;DHT22;1255;48.716;9.124;2023-05-19T10:58:49;14.00;99.90
2489;DHT22;1255;48.716;9.124;2023-05-19T11:01:17;14.00;99.90
2489;DHT22;1255;48.716;9.124;2023-05-19T11:03:46;14.00;99.90
2489;DHT22;1255;48.716;9.124;2023-05-19T11:06:17;14.10;99.90
2489;DHT22;1255;48.716;9.124;2023-05-19T11:08:45;14.20;99.90
2489;DHT22;1255;48.716;9.124;2023-05-19T11:11:14;14.20;99.90
2489;DHT22;1255;48.716;9.124;2023-05-19T11:13:45;14.20;99.90
2489;DHT22;1255;48.716;9.124;2023-05-19T11:16:12;14.20;99.90
2489;DHT22;1255;48.716;9.124;2023-05-19T11:18:39;14.20;99.90
2489;DHT22;1255;48.716;9.124;2023-05-19T11:21:06;14.30;99.90
2489;DHT22;1255;48.716;9.124;2023-05-19T11:23:36;14.30;99.90
2489;DHT22;1255;48.716;9.124;2023-05-19T11:26:05;14.20;99.90
2489;DHT22;1255;48.716;9.124;2023-05-19T11:28:33;14.30;99.90
2489;DHT22;1255;48.716;9.124;2023-05-19T11:31:01;14.40;99.90
2489;DHT22;1255;48.716;9.124;2023-05-19T11:33:28;14.50;99.90
2489;DHT22;1255;48.716;9.124;2023-05-19T11:35:57;14.50;99.90
2489;DHT22;1255;48.716;9.124;2023-05-19T11:38:24;14.50;99.90
2489;DHT22;1255;48.716;9.124;2023-05-19T11:40:53;14.50;99.90
2489;DHT22;1255;48.716;9.124;2023-05-19T11:43:23;14.60;99.90
2489;DHT22;1255;48.716;9.124;2023-05-19T11:45:50;14.60;99.90
2489;DHT22;1255;48.716;9.124;2023-05-19T11:48:19;14.60;99.90
2489;DHT22;1255;48.716;9.124;2023-05-19T11:50:46;14.50;99.90
2489;DHT22;1255;48.716;9.124;2023-05-19T11:53:14;14.50;99.90
2489;DHT22;1255;48.716;9.124;2023-05-19T11:55:41;14.40;99.90
2489;DHT22;1255;48.716;9.124;2023-05-19T11:58:09;14.40;99.90
2489;DHT22;1255;48.716;9.124;2023-05-19T12:00:39;14.40;99.90
2489;DHT22;1255;48.716;9.124;2023-05-19T12:03:06;14.50;99.90
2489;DHT22;1255;48.716;9.124;2023-05-19T12:05:36;14.70;99.90
2489;DHT22;1255;48.716;9.124;2023-05-19T12:08:03;14.70;99.90
2489;DHT22;1255;48.716;9.124;2023-05-19T12:10:31;14.70;99.90
2489;DHT22;1255;48.716;9.124;2023-05-19T12:13:00;14.60;99.90
2489;DHT22;1255;48.716;9.124;2023-05-19T12:15:27;14.50;99.90
2489;DHT22;1255;48.716;9.124;2023-05-19T12:17:57;14.60;99.90
2489;DHT22;1255;48.716;9.124;2023-05-19T12:20:25;14.60;99.90
2489;DHT22;1255;48.716;9.124;2023-05-19T12:22:54;14.60;99.90
2489;DHT22;1255;48.716;9.124;2023-05-19T12:25:21;14.50;99.90
2489;DHT22;1255;48.716;9.124;2023-05-19T12:27:48;14.30;99.90
2489;DHT22;1255;48.716;9.124;2023-05-19T12:30:17;14.20;99.90
2489;DHT22;1255;48.716;9.124;2023-05-19T12:32:45;14.20;99.90
2489;DHT22;1255;48.716;9.124;2023-05-19T12:35:14;14.10;99.90
2489;DHT22;1255;48.716;9.124;2023-05-19T12:37:41;14.10;99.90
2489;DHT22;1255;48.716;9.124;2023-05-19T12:40:13;14.10;99.90
2489;DHT22;1255;48.716;9.124;2023-05-19T12:42:43;14.00;99.90
2489;DHT22;1255;48.716;9.124;2023-05-19T12:45:10;13.90;99.90
2489;DHT22;1255;48.716;9.124;2023-05-19T12:47:37;13.90;99.90
2489;DHT22;1255;48.716;9.124;2023-05-19T12:50:05;13.90;99.90
2489;DHT22;1255;48.716;9.124;2023-05-19T12:52:41;13.90;99.90
2489;DHT22;1255;48.716;9.124;2023-05-19T12:55:08;14.00;99.90
2489;DHT22;1255;48.716;9.124;2023-05-19T12:57:38;14.00;99.90
2489;DHT22;1255;48.716;9.124;2023-05-19T13:00:07;14.10;99.90
2489;DHT22;1255;48.716;9.124;2023-05-19T13:02:54;14.20;99.90
2489;DHT22;1255;48.716;9.124;2023-05-19T13:05:21;14.20;99.90
2489;DHT22;1255;48.716;9.124;2023-05-19T13:07:54;14.20;99.90
2489;DHT22;1255;48.716;9.124;2023-05-19T13:10:21;14.10;99.90
2489;DHT22;1255;48.716;9.124;2023-05-19T13:12:48;14.10;99.90
2489;DHT22;1255;48.716;9.124;2023-05-19T13:15:14;14.10;99.90
2489;DHT22;1255;48.716;9.124;2023-05-19T13:17:41;14.10;99.90
2489;DHT22;1255;48.716;9.124;2023-05-19T13:20:11;14.40;99.90
2489;DHT22;1255;48.716;9.124;2023-05-19T13:22:38;14.60;99.90
2489;DHT22;1255;48.716;9.124;2023-05-19T13:25:07;14.80;99.90
2489;DHT22;1255;48.716;9.124;2023-05-19T13:27:34;14.80;99.90
2489;DHT22;1255;48.716;9.124;2023-05-19T13:30:01;14.90;99.90
2489;DHT22;1255;48.716;9.124;2023-05-19T13:32:27;15.00;99.90
2489;DHT22;1255;48.716;9.124;2023-05-19T13:34:54;15.10;99.90
2489;DHT22;1255;48.716;9.124;2023-05-19T13:37:21;15.00;99.90
2489;DHT22;1255;48.716;9.124;2023-05-19T13:39:48;14.90;99.90
2489;DHT22;1255;48.716;9.124;2023-05-19T13:42:16;14.80;99.90
2489;DHT22;1255;48.716;9.124;2023-05-19T13:44:43;14.80;99.90
2489;DHT22;1255;48.716;9.124;2023-05-19T13:47:10;14.60;99.90
2489;DHT22;1255;48.716;9.124;2023-05-19T13:49:37;14.50;99.90
2489;DHT22;1255;48.716;9.124;2023-05-19T13:52:04;14.40;99.90
2489;DHT22;1255;48.716;9.124;2023-05-19T13:54:32;14.40;99.90
2489;DHT22;1255;48.716;9.124;2023-05-19T13:56:59;14.30;99.90
2489;DHT22;1255;48.716;9.124;2023-05-19T13:59:27;14.20;99.90
2489;DHT22;1255;48.716;9.124;2023-05-19T14:01:54;14.20;99.90
2489;DHT22;1255;48.716;9.124;2023-05-19T14:04:21;14.20;99.90
2489;DHT22;1255;48.716;9.124;2023-05-19T14:06:48;14.20;99.90
2489;DHT22;1255;48.716;9.124;2023-05-19T14:09:14;14.30;99.90
2489;DHT22;1255;48.716;9.124;2023-05-19T14:11:41;14.30;99.90
2489;DHT22;1255;48.716;9.124;2023-05-19T14:14:08;14.40;99.90
2489;DHT22;1255;48.716;9.124;2023-05-19T14:16:36;14.50;99.90
2489;DHT22;1255;48.716;9.124;2023-05-19T14:19:03;14.60;99.90
2489;DHT22;1255;48.716;9.124;2023-05-19T14:21:30;14.70;99.90
2489;DHT22;1255;48.716;9.124;2023-05-19T14:23:56;14.80;99.90
2489;DHT22;1255;48.716;9.124;2023-05-19T14:26:23;14.90;99.90
2489;DHT22;1255;48.716;9.124;2023-05-19T14:28:50;14.90;99.90
2489;DHT22;1255;48.716;9.124;2023-05-19T14:31:17;14.90;99.90
2489;DHT22;1255;48.716;9.124;2023-05-19T14:33:45;14.90;99.90
2489;DHT22;1255;48.716;9.124;2023-05-19T14:36:12;15.00;99.90
2489;DHT22;1255;48.716;9.124;2023-05-19T14:38:39;15.00;99.90
2489;DHT22;1255;48.716;9.124;2023-05-19T14:41:05;15.10;99.90
2489;DHT22;1255;48.716;9.124;2023-05-19T14:43:32;15.00;99.90
2489;DHT22;1255;48.716;9.124;2023-05-19T14:45:59;15.00;99.90
2489;DHT22;1255;48.716;9.124;2023-05-19T14:48:26;15.10;99.90
2489;DHT22;1255;48.716;9.124;2023-05-19T14:50:54;15.00;99.90
2489;DHT22;1255;48.716;9.124;2023-05-19T14:53:20;15.10;99.90
2489;DHT22;1255;48.716;9.124;2023-05-19T14:55:47;15.00;99.90
2489;DHT22;1255;48.716;9.124;2023-05-19T14:58:14;14.90;99.90
2489;DHT22;1255;48.716;9.124;2023-05-19T15:00:42;14.90;99.90
2489;DHT22;1255;48.716;9.124;2023-05-19T15:03:09;14.90;99.90
2489;DHT22;1255;48.716;9.124;2023-05-19T15:05:36;14.90;99.90
2489;DHT22;1255;48.716;9.124;2023-05-19T15:08:06;14.80;99.90
2489;DHT22;1255;48.716;9.124;2023-05-19T15:10:32;14.90;99.90
2489;DHT22;1255;48.716;9.124;2023-05-19T15:12:59;14.80;99.90
2489;DHT22;1255;48.716;9.124;2023-05-19T15:15:26;14.80;99.90
2489;DHT22;1255;48.716;9.124;2023-05-19T15:17:53;14.80;99.90
2489;DHT22;1255;48.716;9.124;2023-05-19T15:20:19;14.80;99.90
2489;DHT22;1255;48.716;9.124;2023-05-19T15:22:46;14.80;99.90
2489;DHT22;1255;48.716;9.124;2023-05-19T15:25:14;14.80;99.90
2489;DHT22;1255;48.716;9.124;2023-05-19T15:27:41;14.90;99.90
2489;DHT22;1255;48.716;9.124;2023-05-19T15:30:08;14.80;99.90
2489;DHT22;1255;48.716;9.124;2023-05-19T15:32:35;14.80;99.90
2489;DHT22;1255;48.716;9.124;2023-05-19T15:35:01;14.80;99.90
2489;DHT22;1255;48.716;9.124;2023-05-19T15:37:28;14.80;99.90
2489;DHT22;1255;48.716;9.124;2023-05-19T15:39:55;14.80;99.90
2489;DHT22;1255;48.716;9.124;2023-05-19T15:42:23;14.80;99.90
2489;DHT22;1255;48.716;9.124;2023-05-19T15:44:50;14.80;99.90
2489;DHT22;1255;48.716;9.124;2023-05-19T15:47:17;14.80;99.90
2489;DHT22;1255;48.716;9.124;2023-05-19T15:49:43;14.80;99.90
2489;DHT22;1255;48.716;9.124;2023-05-19T15:52:10;14.90;99.90
2489;DHT22;1255;48.716;9.124;2023-05-19T15:54:37;15.00;99.90
2489;DHT22;1255;48.716;9.124;2023-05-19T15:57:04;15.00;99.90
2489;DHT22;1255;48.716;9.124;2023-05-19T15:59:33;15.00;99.90
2489;DHT22;1255;48.716;9.124;2023-05-19T16:02:00;15.10;99.90
2489;DHT22;1255;48.716;9.124;2023-05-19T16:04:27;15.10;99.90
2489;DHT22;1255;48.716;9.124;2023-05-19T16:06:54;15.20;99.90
2489;DHT22;1255;48.716;9.124;2023-05-19T16:09:21;15.20;99.90
2489;DHT22;1255;48.716;9.124;2023-05-19T16:11:48;15.20;99.90